Time;durP1;ratioP1;P1;durP2;ratioP2;P2;SDS_P1;SDS_P2;PMS_P1;PMS_P2;Temp;Humidity;BMP_temperature;BMP_pressure;BME280_temperature;BME280_humidity;BME280_pressure;Samples;Min_cycle;Max_cycle;Signal;HPM_P1;HPM_P2
2023/05/19 00:00:25;;;;;;;1.52;0.90;;;19.80;1.00;;;;;;4841418;29;20116;-46
2023/05/19 00:02:51;;;;;;;2.58;0.82;;;19.80;1.00;;;;;;4841300;29;20042;-43
2023/05/19 00:05:19;;;;;;;1.95;1.52;;;19.80;1.00;;;;;;4841340;29;20475;-48
2023/05/19 00:07:47;;;;;;;3.03;0.65;;;19.80;1.00;;;;;;4841245;29;20444;-45
2023/05/19 00:10:15;;;;;;;2.08;0.82;;;19.80;1.00;;;;;;4841218;29;20128;-47
2023/05/19 00:12:43;;;;;;;4.07;0.90;;;19.80;1.00;;;;;;4841585;29;20098;-44
2023/05/19 00:15:10;;;;;;;5.85;0.90;;;19.70;1.00;;;;;;4841109;29;20052;-44
2023/05/19 00:17:37;;;;;;;2.35;0.77;;;19.80;1.00;;;;;;4841061;29;20038;-43
2023/05/19 00:20:06;;;;;;;2.58;0.90;;;19.70;1.00;;;;;;4841396;29;20707;-42
2023/05/19 00:22:33;;;;;;;1.67;0.95;;;19.70;1.00;;;;;;4841134;29;20050;-42
2023/05/19 00:25:00;;;;;;;3.13;0.85;;;19.70;1.00;;;;;;4840984;29;20049;-44
2023/05/19 00:27:26;;;;;;;2.63;0.82;;;19.70;1.00;;;;;;4833527;29;20115;-42
2023/05/19 00:29:53;;;;;;;4.10;0.85;;;19.70;1.00;;;;;;4841364;29;20553;-44
2023/05/19 00:32:20;;;;;;;4.40;1.00;;;19.70;1.00;;;;;;4839838;29;20050;-42
2023/05/19 00:34:48;;;;;;;3.33;1.27;;;19.70;1.00;;;;;;4839673;29;20052;-43
2023/05/19 00:37:15;;;;;;;1.50;0.70;;;19.70;1.00;;;;;;4839689;29;20046;-43
2023/05/19 00:39:42;;;;;;;3.42;0.55;;;19.70;1.00;;;;;;4839798;29;20045;-43
2023/05/19 00:42:09;;;;;;;2.25;0.60;;;19.60;1.00;;;;;;4841352;29;20077;-42
2023/05/19 00:44:39;;;;;;;2.65;0.63;;;19.70;1.00;;;;;;4843414;29;20451;-43
2023/05/19 00:47:07;;;;;;;1.20;0.50;;;19.60;1.00;;;;;;4843264;29;20054;-42
2023/05/19 00:49:35;;;;;;;1.90;0.63;;;19.60;1.00;;;;;;4843387;29;20057;-42
2023/05/19 00:52:02;;;;;;;2.72;0.65;;;19.60;1.00;;;;;;4844504;29;20050;-43
2023/05/19 00:54:28;;;;;;;2.83;0.57;;;19.60;1.00;;;;;;4844374;29;20046;-42
2023/05/19 00:56:57;;;;;;;1.80;0.93;;;19.60;1.00;;;;;;4844417;29;20042;-43
2023/05/19 00:59:24;;;;;;;2.78;0.80;;;19.60;1.00;;;;;;4843191;29;20054;-43
2023/05/19 01:01:51;;;;;;;3.88;0.90;;;19.60;1.00;;;;;;4844480;29;20513;-42
2023/05/19 01:04:20;;;;;;;2.05;0.70;;;19.60;1.00;;;;;;4843104;29;20080;-42
2023/05/19 01:06:54;;;;;;;1.27;0.82;;;19.60;1.00;;;;;;4843929;29;20049;-42
2023/05/19 01:09:21;;;;;;;1.75;0.70;;;19.60;1.00;;;;;;4844578;29;20057;-44
2023/05/19 01:11:49;;;;;;;1.60;0.55;;;19.50;1.00;;;;;;4844110;29;20050;-42
2023/05/19 01:14:17;;;;;;;1.90;0.80;;;19.50;1.00;;;;;;4843919;29;20110;-42
2023/05/19 01:17:05;;;;;;;3.33;1.00;;;19.50;1.00;;;;;;4843087;29;20054;-43
2023/05/19 01:19:52;;;;;;;1.88;0.57;;;19.50;1.00;;;;;;4842846;29;20061;-42
2023/05/19 01:22:58;;;;;;;3.72;0.80;;;19.50;1.00;;;;;;4836920;29;20053;-42
2023/05/19 01:25:37;;;;;;;1.52;1.08;;;19.50;1.00;;;;;;4789970;29;20058;-42
2023/05/19 01:28:28;;;;;;;3.22;0.98;;;19.50;1.00;;;;;;4788996;29;20082;-42
2023/05/19 01:30:58;;;;;;;3.50;1.27;;;19.50;1.00;;;;;;4827683;29;20066;-42
2023/05/19 01:33:28;;;;;;;5.03;1.10;;;19.40;1.00;;;;;;4843658;29;20050;-44
2023/05/19 01:35:57;;;;;;;3.38;1.10;;;19.40;1.00;;;;;;4842402;29;20042;-42
2023/05/19 01:38:27;;;;;;;3.65;0.80;;;19.50;1.00;;;;;;4842312;29;20494;-42
2023/05/19 01:40:56;;;;;;;3.67;1.13;;;19.50;1.00;;;;;;4842435;29;20129;-42
2023/05/19 01:43:24;;;;;;;2.53;1.20;;;19.40;1.00;;;;;;4843495;29;20502;-43
2023/05/19 01:45:53;;;;;;;4.68;1.63;;;19.40;1.00;;;;;;4842489;29;20487;-42
2023/05/19 01:48:21;;;;;;;1.50;0.70;;;19.40;1.00;;;;;;4842185;29;20399;-42
2023/05/19 01:50:48;;;;;;;3.22;0.90;;;19.40;1.00;;;;;;4842278;29;20054;-43
2023/05/19 01:53:15;;;;;;;1.63;0.70;;;19.40;1.00;;;;;;4841942;29;20136;-42
2023/05/19 01:55:48;;;;;;;3.40;1.17;;;19.40;1.00;;;;;;4843279;29;20507;-42
2023/05/19 01:58:42;;;;;;;4.03;1.10;;;19.40;1.00;;;;;;4843240;29;20037;-42
2023/05/19 02:01:28;;;;;;;2.17;0.57;;;19.40;1.00;;;;;;4842251;29;20147;-42
2023/05/19 02:04:03;;;;;;;2.90;1.20;;;19.40;1.00;;;;;;4842042;29;20133;-43
2023/05/19 02:06:54;;;;;;;3.55;0.80;;;19.30;1.00;;;;;;4841945;29;20057;-42
2023/05/19 02:09:39;;;;;;;2.17;0.68;;;19.40;1.00;;;;;;4842248;29;20060;-42
2023/05/19 02:12:18;;;;;;;5.55;0.77;;;19.30;1.00;;;;;;4842006;29;20094;-42
2023/05/19 02:15:03;;;;;;;1.85;0.60;;;19.30;1.00;;;;;;4841899;29;20569;-42
2023/05/19 02:17:38;;;;;;;4.45;0.85;;;19.30;1.00;;;;;;4841521;29;20060;-42
2023/05/19 02:20:08;;;;;;;2.92;0.90;;;19.30;1.00;;;;;;4842164;29;20459;-42
2023/05/19 02:22:35;;;;;;;2.40;0.70;;;19.30;1.00;;;;;;4841734;29;20050;-42
2023/05/19 02:25:03;;;;;;;2.38;0.50;;;19.30;1.00;;;;;;4842779;29;20048;-42
2023/05/19 02:27:32;;;;;;;1.48;0.70;;;19.30;1.00;;;;;;4833884;29;20081;-42
2023/05/19 02:30:05;;;;;;;1.95;0.60;;;19.30;1.00;;;;;;4842842;29;20042;-42
2023/05/19 02:32:32;;;;;;;2.90;1.02;;;19.30;1.00;;;;;;4841642;29;20053;-42
2023/05/19 02:34:59;;;;;;;2.05;0.75;;;19.30;1.00;;;;;;4842627;29;20486;-43
2023/05/19 02:37:27;;;;;;;1.52;0.70;;;19.30;1.00;;;;;;4841511;29;20050;-41
2023/05/19 02:39:54;;;;;;;4.28;1.15;;;19.30;1.00;;;;;;4843045;29;20596;-42
2023/05/19 02:42:21;;;;;;;3.50;0.77;;;19.20;1.00;;;;;;4842545;29;20529;-42
2023/05/19 02:44:48;;;;;;;2.80;0.90;;;19.30;1.00;;;;;;4841181;29;20137;-42
2023/05/19 02:47:15;;;;;;;2.22;0.80;;;19.20;1.00;;;;;;4841175;29;20062;-42
2023/05/19 02:49:43;;;;;;;2.00;0.70;;;19.20;1.00;;;;;;4833202;29;20106;-42
2023/05/19 02:52:11;;;;;;;3.92;0.70;;;19.20;1.00;;;;;;4826876;29;20173;-42
2023/05/19 02:54:38;;;;;;;3.67;1.10;;;19.20;1.00;;;;;;4834104;29;20061;-42
2023/05/19 02:57:05;;;;;;;4.25;2.08;;;19.20;1.00;;;;;;4838451;29;20574;-42
2023/05/19 02:59:32;;;;;;;3.35;0.77;;;19.20;1.00;;;;;;4840516;29;20079;-42
2023/05/19 03:02:00;;;;;;;2.35;0.65;;;19.20;1.00;;;;;;4840942;29;20136;-42
2023/05/19 03:04:28;;;;;;;3.45;1.90;;;19.20;1.00;;;;;;4833395;29;20038;-42
2023/05/19 03:06:56;;;;;;;6.30;1.63;;;19.20;1.00;;;;;;4834261;29;20042;-42
2023/05/19 03:09:23;;;;;;;2.92;0.98;;;19.20;1.00;;;;;;4842196;29;20037;-42
2023/05/19 03:11:50;;;;;;;3.88;0.63;;;19.20;1.00;;;;;;4840769;29;20050;-43
2023/05/19 03:14:17;;;;;;;2.35;0.80;;;19.20;1.00;;;;;;4840761;29;20042;-41
2023/05/19 03:16:44;;;;;;;7.53;1.20;;;19.20;1.00;;;;;;4840453;29;20120;-42
2023/05/19 03:19:11;;;;;;;2.45;0.73;;;19.10;1.00;;;;;;4840706;29;20061;-41
2023/05/19 03:21:38;;;;;;;1.55;0.82;;;19.10;1.00;;;;;;4840664;29;20050;-41
2023/05/19 03:24:05;;;;;;;1.80;0.80;;;19.20;1.00;;;;;;4840601;29;20049;-42
2023/05/19 03:26:33;;;;;;;2.22;1.40;;;19.10;1.00;;;;;;4839220;29;20060;-43
2023/05/19 03:29:00;;;;;;;3.67;0.70;;;19.10;1.00;;;;;;4834632;29;20049;-41
2023/05/19 03:31:30;;;;;;;2.13;0.77;;;19.10;1.00;;;;;;4840722;29;20057;-43
2023/05/19 03:33:58;;;;;;;2.15;0.60;;;19.10;1.00;;;;;;4836221;29;20042;-43
2023/05/19 03:36:30;;;;;;;3.60;1.10;;;19.10;1.00;;;;;;4828693;29;20046;-43
2023/05/19 03:38:58;;;;;;;;;;;19.10;1.00;;;;;;4839648;29;20074;-42
2023/05/19 03:41:25;;;;;;;2.00;0.70;;;19.10;1.00;;;;;;4840301;29;19928;-43
2023/05/19 03:43:52;;;;;;;5.07;1.10;;;19.00;1.00;;;;;;4839832;29;20138;-42
2023/05/19 03:46:19;;;;;;;3.80;1.25;;;19.10;1.00;;;;;;4840270;29;20050;-42
2023/05/19 03:48:46;;;;;;;5.43;0.95;;;19.10;1.00;;;;;;4841363;29;20106;-42
2023/05/19 03:51:35;;;;;;;4.47;1.15;;;19.00;1.00;;;;;;4840195;29;20058;-41
2023/05/19 03:54:17;;;;;;;3.80;1.10;;;19.00;1.00;;;;;;4840037;29;20053;-41
2023/05/19 03:56:44;;;;;;;2.80;1.17;;;19.00;1.00;;;;;;4839880;29;20068;-42
2023/05/19 03:59:11;;;;;;;3.65;1.05;;;19.00;1.00;;;;;;4841404;29;20042;-42
2023/05/19 04:01:38;;;;;;;6.97;0.57;;;19.00;1.00;;;;;;4839893;29;20149;-42
2023/05/19 04:04:05;;;;;;;3.22;0.73;;;19.00;1.00;;;;;;4839860;29;20137;-42
2023/05/19 04:06:32;;;;;;;1.48;0.70;;;19.00;1.00;;;;;;4839750;29;20056;-42
2023/05/19 04:09:02;;;;;;;4.28;0.82;;;19.00;1.00;;;;;;4839923;29;20066;-42
2023/05/19 04:11:29;;;;;;;2.95;0.88;;;19.00;1.00;;;;;;4840059;29;20050;-43
2023/05/19 04:13:57;;;;;;;1.90;0.90;;;19.00;1.00;;;;;;4841064;29;20162;-42
2023/05/19 04:16:23;;;;;;;5.03;0.52;;;19.00;1.00;;;;;;4839482;29;20069;-42
2023/05/19 04:18:51;;;;;;;2.58;1.10;;;19.00;1.00;;;;;;4841084;29;20042;-42
2023/05/19 04:21:17;;;;;;;3.47;1.20;;;19.00;1.00;;;;;;4839936;29;20066;-42
2023/05/19 04:23:44;;;;;;;2.47;0.90;;;19.00;1.00;;;;;;4840828;29;20037;-42
2023/05/19 04:26:13;;;;;;;2.67;1.08;;;18.90;1.00;;;;;;4839724;29;20054;-42
2023/05/19 04:28:43;;;;;;;5.30;0.68;;;19.00;1.00;;;;;;4833170;29;20057;-42
2023/05/19 04:31:11;;;;;;;2.97;1.17;;;19.00;1.00;;;;;;4841091;29;20517;-42
2023/05/19 04:33:39;;;;;;;3.30;0.80;;;19.00;1.00;;;;;;4832037;29;20096;-42
2023/05/19 04:36:10;;;;;;;2.85;0.70;;;19.00;1.00;;;;;;4839588;29;20052;-42
2023/05/19 04:38:39;;;;;;;3.35;0.80;;;19.00;1.00;;;;;;4830557;29;20060;-44
2023/05/19 04:41:10;;;;;;;2.95;0.65;;;18.90;1.00;;;;;;4833961;29;20042;-42
2023/05/19 04:43:40;;;;;;;1.77;0.63;;;19.00;1.00;;;;;;4839252;29;20058;-43
2023/05/19 04:46:09;;;;;;;1.95;0.88;;;18.90;1.00;;;;;;4839703;29;20408;-43
2023/05/19 04:48:40;;;;;;;4.23;0.90;;;18.90;1.00;;;;;;4839513;29;20064;-42
2023/05/19 04:51:07;;;;;;;4.65;0.63;;;18.90;1.00;;;;;;4839647;29;20322;-43
2023/05/19 04:53:35;;;;;;;1.80;1.00;;;18.90;1.00;;;;;;4840422;29;20395;-42
2023/05/19 04:56:04;;;;;;;1.15;0.57;;;18.90;1.00;;;;;;4839785;29;20038;-44
2023/05/19 04:58:32;;;;;;;0.90;0.50;;;18.90;1.00;;;;;;4840678;29;20067;-43
2023/05/19 05:00:59;;;;;;;1.80;0.70;;;18.90;1.00;;;;;;4839487;29;20046;-45
2023/05/19 05:03:29;;;;;;;2.90;0.90;;;18.90;1.00;;;;;;4839295;29;20054;-43
2023/05/19 05:05:57;;;;;;;2.08;1.08;;;18.90;1.00;;;;;;4841112;29;20042;-43
2023/05/19 05:08:24;;;;;;;2.75;0.57;;;18.90;1.00;;;;;;4839227;29;20418;-44
2023/05/19 05:10:52;;;;;;;3.25;1.10;;;18.90;1.00;;;;;;4839490;29;20046;-43
2023/05/19 05:13:22;;;;;;;4.07;1.00;;;18.90;1.00;;;;;;4839320;29;20053;-43
2023/05/19 05:15:50;;;;;;;1.42;0.70;;;18.90;1.00;;;;;;4839456;29;20045;-43
2023/05/19 05:18:18;;;;;;;3.58;1.10;;;18.90;1.00;;;;;;4833217;29;20038;-43
2023/05/19 05:20:45;;;;;;;2.75;0.38;;;18.90;1.00;;;;;;4831742;29;20046;-43
2023/05/19 05:23:15;;;;;;;1.70;0.50;;;18.90;1.00;;;;;;4839542;29;20042;-44
2023/05/19 05:25:46;;;;;;;2.80;0.60;;;18.90;1.00;;;;;;4839346;29;20060;-44
2023/05/19 05:28:14;;;;;;;1.23;0.75;;;18.90;1.00;;;;;;4833227;29;20052;-43
2023/05/19 05:30:42;;;;;;;1.67;0.50;;;18.90;1.00;;;;;;4842780;29;20088;-43
2023/05/19 05:33:10;;;;;;;1.48;0.80;;;18.90;1.00;;;;;;4842457;29;20042;-44
2023/05/19 05:35:39;;;;;;;2.40;0.90;;;18.90;1.00;;;;;;4842255;29;20046;-45
2023/05/19 05:38:10;;;;;;;3.55;1.15;;;18.90;1.00;;;;;;4842352;29;20046;-44
2023/05/19 05:40:37;;;;;;;3.83;0.50;;;18.90;1.00;;;;;;4842506;29;20506;-44
2023/05/19 05:43:04;;;;;;;2.38;1.05;;;18.90;1.00;;;;;;4842276;29;20087;-43
2023/05/19 05:45:35;;;;;;;3.65;1.45;;;18.90;1.00;;;;;;4842350;29;20132;-44
2023/05/19 05:48:04;;;;;;;4.57;0.90;;;18.90;1.00;;;;;;4842287;29;20426;-43
2023/05/19 05:50:32;;;;;;;1.92;0.60;;;18.90;1.00;;;;;;4827089;29;20123;-43
2023/05/19 05:53:02;;;;;;;6.47;1.42;;;18.90;1.00;;;;;;4842213;29;20073;-43
2023/05/19 05:55:29;;;;;;;1.58;0.57;;;19.00;1.00;;;;;;4842066;29;20060;-43
2023/05/19 05:58:00;;;;;;;4.15;0.70;;;18.90;1.00;;;;;;4841980;29;20062;-43
2023/05/19 06:00:28;;;;;;;3.53;0.95;;;19.00;1.00;;;;;;4842131;29;20041;-43
2023/05/19 06:02:55;;;;;;;3.42;1.13;;;18.90;1.00;;;;;;4841915;29;20430;-43
2023/05/19 06:05:24;;;;;;;2.10;0.85;;;19.00;1.00;;;;;;4842037;29;20053;-44
2023/05/19 06:07:53;;;;;;;4.53;0.80;;;19.00;1.00;;;;;;4841904;29;20084;-44
2023/05/19 06:10:23;;;;;;;4.00;0.88;;;19.00;1.00;;;;;;4842196;29;20463;-43
2023/05/19 06:12:51;;;;;;;1.88;0.77;;;19.00;1.00;;;;;;4841440;29;20148;-43
2023/05/19 06:15:21;;;;;;;2.45;0.70;;;19.10;1.00;;;;;;4841869;29;20048;-43
2023/05/19 06:17:59;;;;;;;2.38;0.65;;;19.10;1.00;;;;;;4841739;29;20056;-43
2023/05/19 06:20:27;;;;;;;4.25;1.20;;;19.10;1.00;;;;;;4842167;29;20113;-43
2023/05/19 06:22:55;;;;;;;4.10;1.10;;;19.10;1.00;;;;;;4841542;29;20174;-43
2023/05/19 06:25:24;;;;;;;3.33;0.70;;;19.10;1.00;;;;;;4808628;29;20046;-41
2023/05/19 06:27:51;;;;;;;3.65;0.88;;;19.10;1.00;;;;;;4827297;29;20034;-41
2023/05/19 06:30:19;;;;;;;2.25;0.90;;;19.10;1.00;;;;;;4824357;29;20047;-41
2023/05/19 06:32:56;;;;;;;1.65;0.90;;;19.10;1.00;;;;;;4823979;29;20049;-41
2023/05/19 06:35:24;;;;;;;2.40;0.95;;;19.10;1.00;;;;;;4823808;29;20043;-41
2023/05/19 06:37:51;;;;;;;5.25;1.23;;;19.20;1.00;;;;;;4827928;29;20047;-41
2023/05/19 06:40:19;;;;;;;9.82;1.50;;;19.20;1.00;;;;;;4831633;29;20042;-41
2023/05/19 06:42:46;;;;;;;5.85;1.08;;;19.20;1.00;;;;;;4829768;29;20058;-42
2023/05/19 06:45:21;;;;;;;7.85;1.00;;;19.20;1.00;;;;;;4822679;29;20046;-42
2023/05/19 06:47:49;;;;;;;2.50;1.10;;;19.20;1.00;;;;;;4836728;29;20081;-41
2023/05/19 06:50:17;;;;;;;4.68;1.50;;;19.20;1.00;;;;;;4824662;29;20047;-43
2023/05/19 06:52:46;;;;;;;6.40;1.20;;;19.20;1.00;;;;;;4825576;29;20050;-44
2023/05/19 06:55:12;;;;;;;3.28;1.08;;;19.20;1.00;;;;;;4835440;29;20410;-42
2023/05/19 06:57:39;;;;;;;2.38;0.63;;;19.20;1.00;;;;;;4829235;29;20052;-42
2023/05/19 07:00:13;;;;;;;3.50;0.98;;;19.20;1.00;;;;;;4820130;29;20038;-42
2023/05/19 07:02:46;;;;;;;3.30;0.77;;;19.20;1.00;;;;;;4843708;29;20046;-41
2023/05/19 07:05:13;;;;;;;5.40;1.48;;;19.20;1.00;;;;;;4825569;29;20050;-41
2023/05/19 07:07:43;;;;;;;8.57;1.40;;;19.20;1.00;;;;;;4824543;29;20050;-41
2023/05/19 07:10:13;;;;;;;10.90;1.75;;;19.20;1.00;;;;;;4824735;29;20491;-42
2023/05/19 07:12:40;;;;;;;6.80;1.90;;;19.20;1.00;;;;;;4825901;29;20637;-41
2023/05/19 07:15:08;;;;;;;8.85;1.38;;;19.20;1.00;;;;;;4824634;29;20095;-42
2023/05/19 07:17:36;;;;;;;5.22;1.20;;;19.20;1.00;;;;;;4820501;29;20495;-43
2023/05/19 07:20:08;;;;;;;3.58;1.17;;;19.20;1.00;;;;;;4825075;29;20050;-42
2023/05/19 07:22:37;;;;;;;4.35;1.60;;;19.20;1.00;;;;;;4824188;29;20122;-42
2023/05/19 07:25:08;;;;;;;8.43;2.15;;;19.20;1.00;;;;;;4825973;29;20061;-42
2023/05/19 07:27:36;;;;;;;5.05;1.33;;;19.30;1.00;;;;;;4820654;29;20510;-42
2023/05/19 07:30:03;;;;;;;13.27;2.00;;;19.30;1.00;;;;;;4830804;29;20046;-42
2023/05/19 07:32:30;;;;;;;6.72;1.35;;;19.20;1.00;;;;;;4824114;29;20129;-42
2023/05/19 07:34:57;;;;;;;7.22;2.35;;;19.30;1.00;;;;;;4823027;29;20125;-42
2023/05/19 07:37:25;;;;;;;8.38;2.10;;;19.30;1.00;;;;;;4829093;29;20069;-42
2023/05/19 07:39:52;;;;;;;6.43;2.13;;;19.30;1.00;;;;;;4829903;29;20038;-41
2023/05/19 07:42:18;;;;;;;5.03;1.85;;;19.30;1.00;;;;;;4839789;29;20046;-42
2023/05/19 07:44:45;;;;;;;4.60;1.80;;;19.30;1.00;;;;;;4831745;29;20115;-42
2023/05/19 07:47:12;;;;;;;15.50;1.90;;;19.30;1.00;;;;;;4837249;29;20057;-42
2023/05/19 07:49:38;;;;;;;7.47;3.42;;;19.40;1.00;;;;;;4831666;29;20061;-42
2023/05/19 07:52:05;;;;;;;6.75;1.95;;;19.30;1.00;;;;;;4840703;29;20049;-42
2023/05/19 07:54:32;;;;;;;4.03;1.77;;;19.40;1.00;;;;;;4841809;29;20046;-42
2023/05/19 07:56:59;;;;;;;9.73;1.85;;;19.40;1.00;;;;;;4843065;29;20460;-42
2023/05/19 07:59:26;;;;;;;5.75;1.85;;;19.40;1.00;;;;;;4839774;29;20063;-41
2023/05/19 08:01:53;;;;;;;7.57;2.17;;;19.40;1.00;;;;;;4841125;29;20074;-41
2023/05/19 08:04:20;;;;;;;4.60;1.67;;;19.40;1.00;;;;;;4842211;29;20050;-42
2023/05/19 08:06:47;;;;;;;6.80;2.10;;;19.40;1.00;;;;;;4843725;29;20133;-43
2023/05/19 08:09:13;;;;;;;7.28;1.70;;;19.40;1.00;;;;;;4840800;29;20050;-42
2023/05/19 08:11:40;;;;;;;5.40;1.58;;;19.40;1.00;;;;;;4838721;29;20041;-42
2023/05/19 08:14:07;;;;;;;7.68;1.80;;;19.40;1.00;;;;;;4837893;29;20042;-43
2023/05/19 08:16:34;;;;;;;5.13;2.10;;;19.50;1.00;;;;;;4837449;29;20134;-42
2023/05/19 08:19:03;;;;;;;10.27;3.08;;;19.50;1.00;;;;;;4841387;29;20380;-41
2023/05/19 08:21:33;;;;;;;10.38;2.28;;;19.50;1.00;;;;;;4841526;29;20502;-42
2023/05/19 08:24:00;;;;;;;7.43;2.40;;;19.50;1.00;;;;;;4841166;29;20049;-42
2023/05/19 08:26:28;;;;;;;5.32;2.03;;;19.50;1.00;;;;;;4841198;29;20129;-42
2023/05/19 08:28:54;;;;;;;8.68;1.77;;;19.50;1.00;;;;;;4841255;29;20128;-43
2023/05/19 08:31:21;;;;;;;8.60;1.83;;;19.50;1.00;;;;;;4841417;29;20076;-42
2023/05/19 08:33:48;;;;;;;10.85;3.10;;;19.60;1.00;;;;;;4837459;29;20046;-43
2023/05/19 08:36:15;;;;;;;6.28;1.60;;;19.50;1.00;;;;;;4841193;29;20517;-42
2023/05/19 08:38:43;;;;;;;5.90;1.80;;;19.60;1.00;;;;;;4841010;29;20046;-42
2023/05/19 08:41:10;;;;;;;7.05;1.92;;;19.60;1.00;;;;;;4841249;29;20038;-42
2023/05/19 08:43:38;;;;;;;12.60;1.85;;;19.60;1.00;;;;;;4837430;29;20070;-42
2023/05/19 08:46:06;;;;;;;6.95;2.10;;;19.60;1.00;;;;;;4832281;29;20049;-43
2023/05/19 08:48:37;;;;;;;14.02;2.70;;;19.60;1.00;;;;;;4831152;29;20051;-43
2023/05/19 08:51:04;;;;;;;8.18;1.50;;;19.60;1.00;;;;;;4814866;29;20061;-43
2023/05/19 08:53:36;;;;;;;7.68;1.95;;;19.60;1.00;;;;;;4822711;29;20069;-42
2023/05/19 08:56:20;;;;;;;6.20;2.70;;;19.70;1.00;;;;;;4821325;29;20122;-42
2023/05/19 08:58:49;;;;;;;5.47;1.20;;;19.70;1.00;;;;;;4829811;29;20497;-42
2023/05/19 09:01:17;;;;;;;7.13;1.98;;;19.70;1.00;;;;;;4840759;29;20045;-42
2023/05/19 09:03:45;;;;;;;11.13;3.05;;;19.70;1.00;;;;;;4843380;29;20049;-42
2023/05/19 09:06:13;;;;;;;2.97;1.23;;;19.70;1.00;;;;;;4844629;29;20106;-43
2023/05/19 09:08:41;;;;;;;7.07;1.55;;;19.80;1.00;;;;;;4836930;29;20046;-45
2023/05/19 09:11:09;;;;;;;4.85;1.42;;;19.80;1.00;;;;;;4835430;29;20440;-45
2023/05/19 09:13:36;;;;;;;6.32;1.30;;;19.80;1.00;;;;;;4844146;29;20056;-43
2023/05/19 09:16:03;;;;;;;4.95;1.20;;;19.80;1.00;;;;;;4844566;29;20046;-43
2023/05/19 09:18:31;;;;;;;3.17;1.15;;;19.80;1.00;;;;;;4844484;29;20042;-45
2023/05/19 09:21:03;;;;;;;5.72;2.13;;;19.80;1.00;;;;;;4844024;29;20112;-42
2023/05/19 09:23:34;;;;;;;5.22;1.55;;;19.80;1.00;;;;;;4838336;29;20077;-42
2023/05/19 09:26:08;;;;;;;4.40;1.05;;;19.80;1.00;;;;;;4826253;29;20081;-42
2023/05/19 09:28:35;;;;;;;;;;;19.90;1.00;;;;;;4817432;29;20129;-43
2023/05/19 09:31:04;;;;;;;4.38;2.40;;;19.90;1.00;;;;;;4824586;29;19929;-44
2023/05/19 09:33:33;;;;;;;8.52;2.10;;;19.90;1.00;;;;;;4824317;29;20077;-45
2023/05/19 09:36:02;;;;;;;3.95;1.50;;;19.80;1.00;;;;;;4822298;29;20111;-43
2023/05/19 09:38:28;;;;;;;6.75;2.30;;;19.90;1.00;;;;;;4818157;29;20110;-42
2023/05/19 09:40:56;;;;;;;6.90;2.03;;;19.80;1.00;;;;;;4819274;29;20042;-42
2023/05/19 09:43:32;;;;;;;9.07;2.10;;;19.80;1.00;;;;;;4815836;29;20108;-42
2023/05/19 09:46:06;;;;;;;6.55;2.60;;;19.80;1.00;;;;;;4818405;29;20070;-44
2023/05/19 09:48:35;;;;;;;12.00;2.30;;;19.80;1.00;;;;;;4794965;29;20062;-42
2023/05/19 09:51:05;;;;;;;7.50;2.00;;;19.80;1.00;;;;;;4817000;29;20103;-42
2023/05/19 09:53:33;;;;;;;8.73;3.17;;;19.80;1.00;;;;;;4824515;29;20137;-42
2023/05/19 09:56:02;;;;;;;7.75;2.40;;;19.80;1.00;;;;;;4827570;29;20045;-45
2023/05/19 09:58:36;;;;;;;5.55;2.22;;;19.80;1.00;;;;;;4826850;29;20050;-43
2023/05/19 10:01:04;;;;;;;3.92;1.95;;;19.80;1.00;;;;;;4820350;29;20050;-42
2023/05/19 10:03:32;;;;;;;6.35;2.55;;;19.80;1.00;;;;;;4824677;29;20094;-43
2023/05/19 10:06:01;;;;;;;6.95;2.67;;;19.80;1.00;;;;;;4835709;29;20492;-44
2023/05/19 10:08:29;;;;;;;6.75;2.70;;;19.80;1.00;;;;;;4817023;29;20055;-44
2023/05/19 10:10:57;;;;;;;11.07;2.30;;;19.80;1.00;;;;;;4815974;29;20050;-43
2023/05/19 10:13:24;;;;;;;8.77;2.63;;;19.80;1.00;;;;;;4814062;29;20054;-45
2023/05/19 10:15:52;;;;;;;12.38;4.20;;;19.80;1.00;;;;;;4811715;29;20117;-42
2023/05/19 10:18:23;;;;;;;6.63;2.25;;;19.80;1.00;;;;;;4810921;29;20153;-44
2023/05/19 10:20:51;;;;;;;9.75;2.70;;;19.80;1.00;;;;;;4811819;29;20039;-44
2023/05/19 10:23:18;;;;;;;5.90;2.13;;;19.80;1.00;;;;;;4808986;29;20070;-44
2023/05/19 10:25:46;;;;;;;5.10;2.38;;;19.80;1.00;;;;;;4816249;29;20130;-44
2023/05/19 10:28:17;;;;;;;4.82;2.60;;;19.80;1.00;;;;;;4812219;29;20046;-46
2023/05/19 10:30:48;;;;;;;8.02;2.17;;;19.80;1.00;;;;;;4814019;29;20403;-45
2023/05/19 10:33:17;;;;;;;6.28;2.35;;;19.80;1.00;;;;;;4816939;29;20050;-44
2023/05/19 10:36:26;;;;;;;6.20;2.53;;;19.80;1.00;;;;;;4812161;29;20526;-44
2023/05/19 10:39:19;;;;;;;3.58;2.90;;;19.80;1.00;;;;;;4803867;29;20063;-43
2023/05/19 10:42:09;;;;;;;7.20;2.67;;;19.80;1.00;;;;;;4819367;29;20479;-44
2023/05/19 10:45:19;;;;;;;6.45;2.40;;;19.80;1.00;;;;;;4811350;29;20039;-42
2023/05/19 10:47:45;;;;;;;10.48;3.67;;;19.70;1.00;;;;;;4788285;29;20085;-43
2023/05/19 10:50:13;;;;;;;4.57;2.22;;;19.70;1.00;;;;;;4813578;29;20042;-48
2023/05/19 10:52:40;;;;;;;10.98;2.70;;;19.80;1.00;;;;;;4817820;29;20113;-42
2023/05/19 10:55:08;;;;;;;5.68;2.85;;;19.70;1.00;;;;;;4824062;29;20042;-43
2023/05/19 10:57:35;;;;;;;11.80;2.55;;;19.70;1.00;;;;;;4826869;29;20384;-42
2023/05/19 11:00:24;;;;;;;5.95;2.58;;;19.80;1.00;;;;;;4831771;29;20081;-43
2023/05/19 11:02:54;;;;;;;7.75;3.40;;;19.70;1.00;;;;;;4834920;29;20128;-45
2023/05/19 11:05:28;;;;;;;5.82;2.58;;;19.80;1.00;;;;;;4821513;29;20051;-44
2023/05/19 11:08:03;;;;;;;9.88;2.83;;;19.70;1.00;;;;;;4824922;29;20050;-44
2023/05/19 11:10:30;;;;;;;7.78;3.08;;;19.70;1.00;;;;;;4821553;29;20182;-42
2023/05/19 11:12:57;;;;;;;5.82;2.30;;;19.70;1.00;;;;;;4829487;29;20046;-42
2023/05/19 11:15:27;;;;;;;6.82;2.65;;;19.70;1.00;;;;;;4832106;29;20399;-42
2023/05/19 11:17:55;;;;;;;5.35;2.53;;;19.70;1.00;;;;;;4826741;29;20125;-44
2023/05/19 11:20:27;;;;;;;9.90;2.22;;;19.70;1.00;;;;;;4821561;29;20503;-45
2023/05/19 11:23:05;;;;;;;8.18;2.13;;;19.70;1.00;;;;;;4826336;29;20035;-41
2023/05/19 11:25:46;;;;;;;7.22;2.33;;;19.70;1.00;;;;;;4840744;29;20128;-46
2023/05/19 11:28:16;;;;;;;5.97;2.42;;;19.60;1.00;;;;;;4841742;29;20053;-43
2023/05/19 11:30:45;;;;;;;9.13;2.58;;;19.60;1.00;;;;;;4842016;29;20407;-45
2023/05/19 11:33:13;;;;;;;8.52;2.63;;;19.60;1.00;;;;;;4825664;29;20049;-43
2023/05/19 11:35:41;;;;;;;9.50;2.67;;;19.60;1.00;;;;;;4816973;29;20053;-42
2023/05/19 11:38:07;;;;;;;5.25;2.08;;;19.60;1.00;;;;;;4822371;29;20096;-41
2023/05/19 11:40:35;;;;;;;11.63;3.25;;;19.60;1.00;;;;;;4820046;29;20046;-42
2023/05/19 11:43:01;;;;;;;5.32;3.55;;;19.60;1.00;;;;;;4821312;29;20125;-42
2023/05/19 11:45:31;;;;;;;5.70;2.53;;;19.60;1.00;;;;;;4819061;29;20070;-42
2023/05/19 11:47:58;;;;;;;12.88;3.92;;;19.60;1.00;;;;;;4817665;29;20372;-43
2023/05/19 11:50:30;;;;;;;9.65;2.55;;;19.60;1.00;;;;;;4823305;29;20050;-42
2023/05/19 11:52:59;;;;;;;12.38;2.78;;;19.60;1.00;;;;;;4818937;29;20057;-42
2023/05/19 11:55:27;;;;;;;8.50;2.15;;;19.60;1.00;;;;;;4822120;29;20049;-42
2023/05/19 11:58:01;;;;;;;6.05;2.00;;;19.60;1.00;;;;;;4820637;29;20106;-44
2023/05/19 12:00:37;;;;;;;6.30;1.90;;;19.60;1.00;;;;;;4819130;29;20122;-44
2023/05/19 12:03:05;;;;;;;6.70;2.38;;;19.60;1.00;;;;;;4821627;29;20037;-41
2023/05/19 12:05:35;;;;;;;7.35;1.98;;;19.60;1.00;;;;;;4821857;29;20045;-42
2023/05/19 12:08:07;;;;;;;7.93;2.30;;;19.50;1.00;;;;;;4826099;29;20054;-42
2023/05/19 12:10:34;;;;;;;8.73;2.35;;;19.50;1.00;;;;;;4838079;29;20046;-42
2023/05/19 12:13:02;;;;;;;8.38;1.55;;;19.50;1.00;;;;;;4819693;29;20135;-44
2023/05/19 12:15:31;;;;;;;6.70;1.95;;;19.50;1.00;;;;;;4818677;29;20102;-42
2023/05/19 12:18:00;;;;;;;6.90;1.77;;;19.50;1.00;;;;;;4815313;29;20047;-42
2023/05/19 12:20:31;;;;;;;4.28;1.80;;;19.50;1.00;;;;;;4817279;29;20116;-44
2023/05/19 12:22:59;;;;;;;4.35;1.60;;;19.50;1.00;;;;;;4826481;29;20099;-45
2023/05/19 12:25:27;;;;;;;9.15;1.80;;;19.50;1.00;;;;;;4826291;29;20060;-55
2023/05/19 12:27:59;;;;;;;6.15;1.95;;;19.50;1.00;;;;;;4828869;29;20042;-42
2023/05/19 12:30:28;;;;;;;8.30;2.83;;;19.50;1.00;;;;;;4822419;29;20179;-45
2023/05/19 12:32:56;;;;;;;5.85;1.83;;;19.50;1.00;;;;;;4821434;29;20058;-42
2023/05/19 12:35:32;;;;;;;4.68;2.10;;;19.50;1.00;;;;;;4819440;29;20049;-43
2023/05/19 12:38:05;;;;;;;8.30;2.13;;;19.50;1.00;;;;;;4819763;29;20503;-42
2023/05/19 12:40:35;;;;;;;4.80;1.70;;;19.50;1.00;;;;;;4827472;29;20137;-43
2023/05/19 12:43:05;;;;;;;2.80;1.70;;;19.40;1.00;;;;;;4824083;29;20039;-43
2023/05/19 12:45:35;;;;;;;8.85;2.47;;;19.40;1.00;;;;;;4824301;29;20042;-44
2023/05/19 12:48:14;;;;;;;5.43;2.13;;;19.50;1.00;;;;;;4842032;29;20046;-42
2023/05/19 12:50:43;;;;;;;7.15;2.30;;;19.50;1.00;;;;;;4844592;29;20502;-42
2023/05/19 12:53:11;;;;;;;6.72;1.70;;;19.50;1.00;;;;;;4844255;29;20057;-44
2023/05/19 12:55:43;;;;;;;7.00;2.15;;;19.40;1.00;;;;;;4844676;29;20049;-43
2023/05/19 12:58:11;;;;;;;6.53;1.73;;;19.40;1.00;;;;;;4844321;29;20084;-42
2023/05/19 13:00:45;;;;;;;7.50;2.03;;;19.40;1.00;;;;;;4837281;29;20046;-42
2023/05/19 13:03:18;;;;;;;5.25;2.25;;;19.40;1.00;;;;;;4844493;29;20053;-42
2023/05/19 13:05:47;;;;;;;5.05;1.65;;;19.50;1.00;;;;;;4839160;29;20035;-42
2023/05/19 13:08:22;;;;;;;5.43;1.60;;;19.40;1.00;;;;;;4824009;29;20077;-43
2023/05/19 13:10:49;;;;;;;7.45;2.13;;;19.40;1.00;;;;;;4820468;29;20054;-43